createdAt,value
2022-11-29T00:08:54.609Z,3.10
2022-11-29T00:19:22.411Z,3.05
2022-11-29T00:29:49.760Z,2.92
2022-11-29T00:40:17.336Z,2.87
2022-11-29T00:50:44.595Z,2.92
2022-11-29T01:01:12.710Z,3.02
2022-11-29T01:11:40.071Z,3.10
2022-11-29T01:22:07.379Z,3.12
2022-11-29T01:32:35.018Z,3.13
2022-11-29T01:43:02.327Z,3.13
2022-11-29T01:53:30.403Z,3.02
2022-11-29T02:03:57.896Z,2.89
2022-11-29T02:14:45.159Z,2.72
2022-11-29T02:25:29.384Z,2.76
2022-11-29T02:36:25.077Z,2.54
2022-11-29T02:47:09.295Z,2.39
2022-11-29T02:57:44.555Z,2.33
2022-11-29T03:08:21.512Z,2.30
2022-11-29T03:19:01.413Z,2.22
2022-11-29T03:29:34.034Z,2.16
2022-11-29T03:40:06.436Z,2.07
2022-11-29T03:50:37.602Z,2.04
2022-11-29T04:01:30.518Z,1.95
2022-11-29T04:12:22.566Z,2.02
2022-11-29T04:23:19.208Z,1.93
2022-11-29T04:34:07.675Z,1.71
2022-11-29T04:44:53.630Z,1.83
2022-11-29T04:55:45.545Z,1.84
2022-11-29T05:06:22.041Z,1.75
2022-11-29T05:16:55.197Z,1.50
2022-11-29T05:27:32.807Z,1.49
2022-11-29T05:38:11.499Z,1.50
2022-11-29T05:48:47.354Z,1.56
2022-11-29T05:59:18.299Z,1.52
2022-11-29T06:09:50.114Z,1.31
2022-11-29T06:20:54.563Z,1.29
2022-11-29T06:31:26.527Z,1.25
2022-11-29T06:41:53.951Z,1.05
2022-11-29T06:52:28.658Z,1.26
2022-11-29T07:03:15.361Z,1.41
2022-11-29T07:13:44.121Z,1.33
2022-11-29T07:24:23.679Z,1.23
2022-11-29T07:35:02.348Z,1.35
2022-11-29T07:45:32.903Z,1.39
2022-11-29T07:56:00.636Z,1.55
2022-11-29T08:06:28.758Z,1.39
2022-11-29T08:16:55.983Z,1.14
2022-11-29T08:27:23.296Z,1.03
2022-11-29T08:37:51.062Z,0.98
2022-11-29T08:48:18.373Z,1.10
2022-11-29T08:58:46.083Z,1.15
2022-11-29T09:09:14.010Z,1.03
2022-11-29T09:19:42.128Z,1.00
2022-11-29T09:30:12.629Z,0.96
2022-11-29T09:40:48.120Z,0.89
2022-11-29T09:51:24.744Z,1.02
2022-11-29T10:01:55.943Z,1.12
2022-11-29T10:12:31.684Z,1.60
2022-11-29T10:23:03.885Z,1.84
2022-11-29T10:33:36.383Z,1.93
2022-11-29T10:44:04.176Z,1.97
2022-11-29T10:54:39.570Z,1.91
2022-11-29T11:05:18.723Z,2.00
2022-11-29T11:15:46.526Z,2.11
2022-11-29T11:26:15.929Z,2.40
2022-11-29T11:36:43.272Z,2.28
2022-11-29T11:47:17.002Z,2.15
2022-11-29T11:57:44.691Z,2.27
2022-11-29T12:08:15.318Z,2.16
2022-11-29T12:18:48.146Z,2.36
2022-11-29T12:29:19.244Z,2.52
2022-11-29T12:40:03.917Z,2.82
2022-11-29T12:50:44.543Z,2.76
2022-11-29T13:01:20.104Z,2.86
2022-11-29T13:11:55.901Z,3.12
2022-11-29T13:22:30.091Z,3.08
2022-11-29T13:33:04.287Z,3.06
2022-11-29T13:43:40.520Z,3.09
2022-11-29T13:54:26.736Z,2.69
2022-11-29T14:04:56.095Z,2.56
2022-11-29T14:15:28.385Z,2.54
2022-11-29T14:26:28.310Z,2.33
2022-11-29T14:37:00.349Z,2.24
2022-11-29T14:47:34.513Z,2.21
2022-11-29T14:58:22.909Z,2.06
2022-11-29T15:08:58.576Z,2.18
2022-11-29T15:20:19.908Z,2.17
2022-11-29T15:30:48.167Z,2.06
2022-11-29T15:41:29.982Z,1.86
2022-11-29T15:52:00.924Z,1.74
2022-11-29T16:02:31.065Z,1.73
2022-11-29T16:13:00.311Z,1.75
2022-11-29T16:23:35.374Z,1.73
2022-11-29T16:34:10.161Z,1.39
2022-11-29T16:45:08.185Z,1.27
2022-11-29T16:55:35.488Z,1.39
2022-11-29T17:06:03.307Z,1.46
2022-11-29T17:16:30.836Z,1.26
2022-11-29T17:26:58.391Z,1.02
2022-11-29T17:37:25.746Z,1.20
2022-11-29T17:47:53.043Z,1.31
2022-11-29T17:58:20.583Z,1.35
2022-11-29T18:08:49.145Z,1.35
2022-11-29T18:19:18.719Z,1.16
2022-11-29T18:29:46.292Z,1.01
2022-11-29T18:40:15.853Z,1.02
2022-11-29T18:50:43.347Z,0.94
2022-11-29T19:01:12.711Z,0.83
2022-11-29T19:11:40.412Z,0.72
2022-11-29T19:22:07.930Z,0.79
2022-11-29T19:32:35.333Z,0.98
2022-11-29T19:43:02.716Z,1.30
2022-11-29T19:53:30.228Z,1.48
2022-11-29T20:03:59.782Z,1.47
2022-11-29T20:14:27.880Z,1.69
2022-11-29T20:24:55.493Z,1.64
2022-11-29T20:35:24.354Z,1.40
2022-11-29T20:45:53.897Z,1.29
2022-11-29T20:56:21.244Z,1.32
2022-11-29T21:06:49.289Z,1.55
2022-11-29T21:17:17.644Z,1.55
2022-11-29T21:27:46.074Z,1.43
2022-11-29T21:38:18.424Z,1.54
2022-11-29T21:48:45.690Z,1.89
2022-11-29T21:59:12.989Z,1.71
2022-11-29T22:09:40.278Z,1.53
2022-11-29T22:20:08.989Z,1.56
2022-11-29T22:30:35.962Z,1.71
2022-11-29T22:41:04.968Z,1.68
2022-11-29T22:51:33.584Z,1.75
2022-11-29T23:01:59.551Z,1.70
2022-11-29T23:12:26.927Z,1.69
2022-11-29T23:22:55.147Z,1.58
2022-11-29T23:33:22.572Z,1.52
2022-11-29T23:43:49.999Z,1.41
2022-11-29T23:54:17.599Z,1.27
